Time;durP1;ratioP1;P1;durP2;ratioP2;P2;SDS_P1;SDS_P2;PMS_P1;PMS_P2;Temp;Humidity;BMP_temperature;BMP_pressure;BME280_temperature;BME280_humidity;BME280_pressure;Samples;Min_cycle;Max_cycle;Signal;HPM_P1;HPM_P2
2023/02/26 00:00:03;;;;;;;;;;;;;;;28.47;23.24;99724.31;5057626;28;1079;-15
2023/02/26 00:02:31;;;;;;;;;;;;;;;28.62;23.35;99706.09;5046369;28;1063;-15
2023/02/26 00:04:57;;;;;;;;;;;;;;;29.29;22.31;99713.72;5045068;28;1138;-15
2023/02/26 00:07:22;;;;;;;;;;;;;;;28.80;23.13;99719.72;5058443;28;1071;-15
2023/02/26 00:09:48;;;;;;;;;;;;;;;28.80;22.93;99714.31;5044955;28;1172;-15
2023/02/26 00:12:13;;;;;;;;;;;;;;;28.59;23.08;99710.88;5057796;28;1024;-15
2023/02/26 00:14:39;;;;;;;;;;;;;;;29.24;22.55;99731.69;5044868;28;1213;-15
2023/02/26 00:17:06;;;;;;;;;;;;;;;28.82;22.93;99720.34;5058183;28;1898;-15
2023/02/26 00:19:32;;;;;;;;;;;;;;;28.66;23.25;99718.97;5057646;28;1035;-14
2023/02/26 00:21:58;;;;;;;;;;;;;;;28.81;23.39;99720.56;5058369;28;1019;-15
2023/02/26 00:24:23;;;;;;;;;;;;;;;28.93;23.00;99731.47;5057791;28;1030;-15
2023/02/26 00:26:49;;;;;;;;;;;;;;;28.83;22.79;99718.44;5058122;28;1078;-15
2023/02/26 00:29:14;;;;;;;;;;;;;;;28.93;22.70;99713.34;5072184;28;1067;-14
2023/02/26 00:31:40;;;;;;;;;;;;;;;28.70;22.95;99722.06;5046051;28;1032;-15
2023/02/26 00:34:05;;;;;;;;;;;;;;;29.00;22.96;99715.22;5044729;28;1111;-15
2023/02/26 00:36:40;;;;;;;;;;;;;;;28.60;23.62;99730.66;5057690;28;1910;-14
2023/02/26 00:39:08;;;;;;;;;;;;;;;28.72;23.00;99728.94;5043471;28;1135;-15
2023/02/26 00:41:35;;;;;;;;;;;;;;;28.61;23.34;99721.53;5046708;28;1135;-15
2023/02/26 00:44:00;;;;;;;;;;;;;;;28.91;23.17;99728.19;5054247;28;1140;-15
2023/02/26 00:46:37;;;;;;;;;;;;;;;28.83;22.95;99713.84;5047764;28;1095;-15
2023/02/26 00:49:15;;;;;;;;;;;;;;;28.54;23.25;99715.31;5054205;28;1211;-15
2023/02/26 00:51:40;;;;;;;;;;;;;;;28.93;23.09;99718.78;5066227;28;1163;-15
2023/02/26 00:54:12;;;;;;;;;;;;;;;29.33;22.50;99712.22;5057614;28;1136;-15
2023/02/26 00:56:37;;;;;;;;;;;;;;;29.05;22.58;99707.25;5057369;28;1927;-15
2023/02/26 00:59:03;;;;;;;;;;;;;;;28.64;23.15;99707.56;5057508;28;1047;-15
2023/02/26 01:01:28;;;;;;;;;;;;;;;28.75;23.47;99713.28;5055035;28;1098;-14
2023/02/26 01:03:54;;;;;;;;;;;;;;;29.47;22.32;99722.91;5050767;28;995;-15
2023/02/26 01:06:20;;;;;;;;;;;;;;;29.04;22.67;99711.03;5050602;28;1088;-14
2023/02/26 01:08:51;;;;;;;;;;;;;;;29.18;22.68;99701.72;5044270;28;1182;-15
2023/02/26 01:11:17;;;;;;;;;;;;;;;28.76;22.90;99704.94;5055821;28;1109;-15
2023/02/26 01:13:42;;;;;;;;;;;;;;;29.12;22.86;99696.38;5056617;28;872;-15
2023/02/26 01:16:08;;;;;;;;;;;;;;;28.69;23.38;99704.19;5066489;28;1140;-15
2023/02/26 01:18:38;;;;;;;;;;;;;;;28.71;22.98;99694.78;5049911;28;1902;-15
2023/02/26 01:21:04;;;;;;;;;;;;;;;28.66;23.40;99697.31;5049379;28;1077;-14
2023/02/26 01:23:30;;;;;;;;;;;;;;;29.08;23.06;99698.69;5044719;28;1135;-15
2023/02/26 01:25:57;;;;;;;;;;;;;;;29.49;22.44;99696.44;5058685;28;1105;-15
2023/02/26 01:28:23;;;;;;;;;;;;;;;29.19;22.74;99692.56;5039120;28;1119;-15
2023/02/26 01:30:49;;;;;;;;;;;;;;;28.82;23.13;99692.44;5054548;28;1115;-15
2023/02/26 01:33:33;;;;;;;;;;;;;;;29.09;22.82;99690.34;5043659;28;1049;-15
2023/02/26 01:36:05;;;;;;;;;;;;;;;29.31;22.59;99705.38;5072169;28;1698;-14
2023/02/26 01:38:36;;;;;;;;;;;;;;;28.95;22.86;99695.03;5055306;28;1906;-15
2023/02/26 01:41:25;;;;;;;;;;;;;;;28.68;23.23;99705.22;5056433;28;1055;-15
2023/02/26 01:44:00;;;;;;;;;;;;;;;29.04;23.00;99709.16;5023592;28;1129;-14
2023/02/26 01:46:44;;;;;;;;;;;;;;;29.13;22.93;99709.69;5062486;28;1209;-15
2023/02/26 01:49:12;;;;;;;;;;;;;;;29.06;22.91;99714.34;5055854;28;1158;-15
2023/02/26 01:51:40;;;;;;;;;;;;;;;28.80;22.87;99710.75;5043662;28;1119;-15
2023/02/26 01:54:06;;;;;;;;;;;;;;;28.93;23.20;99707.94;5054199;28;1092;-15
2023/02/26 01:56:31;;;;;;;;;;;;;;;28.84;23.31;99717.41;5071669;28;1020;-15
2023/02/26 01:58:57;;;;;;;;;;;;;;;29.03;23.19;99720.22;5055139;28;1882;-15
2023/02/26 02:01:22;;;;;;;;;;;;;;;28.70;23.27;99719.38;5046703;28;1012;-15
2023/02/26 02:03:47;;;;;;;;;;;;;;;28.77;23.77;99727.44;5040526;28;1228;-15
2023/02/26 02:06:15;;;;;;;;;;;;;;;28.69;23.62;99732.09;5071266;28;1027;-15
2023/02/26 02:08:40;;;;;;;;;;;;;;;29.00;23.06;99724.16;5032891;28;1084;-15
2023/02/26 02:11:07;;;;;;;;;;;;;;;28.67;23.32;99736.88;5047266;28;1171;-15
2023/02/26 02:13:32;;;;;;;;;;;;;;;28.72;23.58;99731.66;5067990;28;1155;-15
2023/02/26 02:16:17;;;;;;;;;;;;;;;29.17;22.81;99738.00;5056126;28;1066;-15
2023/02/26 02:19:01;;;;;;;;;;;;;;;29.19;23.12;99741.31;5043192;28;1914;-15
2023/02/26 02:21:32;;;;;;;;;;;;;;;28.76;23.35;99742.03;5037504;28;1114;-15
2023/02/26 02:24:12;;;;;;;;;;;;;;;28.69;23.24;99734.78;5036163;28;1132;-15
2023/02/26 02:26:57;;;;;;;;;;;;;;;28.87;23.35;99745.91;5047664;28;1277;-15
2023/02/26 02:29:44;;;;;;;;;;;;;;;28.99;23.08;99755.00;5049321;28;1155;-14
2023/02/26 02:32:30;;;;;;;;;;;;;;;28.66;23.35;99754.16;5046971;28;1013;-14
2023/02/26 02:35:17;;;;;;;;;;;;;;;29.03;23.57;99748.09;5043943;28;1123;-15
2023/02/26 02:37:47;;;;;;;;;;;;;;;29.52;22.53;99750.16;5047216;28;1910;-14
2023/02/26 02:40:14;;;;;;;;;;;;;;;28.96;23.26;99750.81;5046336;28;1103;-15
2023/02/26 02:43:00;;;;;;;;;;;;;;;28.82;23.05;99743.84;5036985;28;1140;-15
2023/02/26 02:45:34;;;;;;;;;;;;;;;28.80;23.42;99754.06;5048732;28;1067;-15
2023/02/26 02:48:26;;;;;;;;;;;;;;;29.13;23.03;99760.31;5037877;28;2320;-15
2023/02/26 02:50:53;;;;;;;;;;;;;;;28.91;23.46;99756.06;5031434;28;1489;-15
2023/02/26 02:53:23;;;;;;;;;;;;;;;28.82;23.52;99765.50;5047612;28;1164;-14
2023/02/26 02:55:52;;;;;;;;;;;;;;;28.81;23.63;99777.38;5047675;28;1631;-15
2023/02/26 02:58:19;;;;;;;;;;;;;;;29.06;23.39;99779.31;5052052;28;2304;-15
2023/02/26 03:00:48;;;;;;;;;;;;;;;28.81;23.50;99772.78;5048438;28;1067;-15
2023/02/26 03:03:23;;;;;;;;;;;;;;;28.51;22.97;99770.66;5031727;28;1087;-14
2023/02/26 03:05:49;;;;;;;;;;;;;;;28.65;23.74;99766.03;5043332;28;1112;-15
2023/02/26 03:08:15;;;;;;;;;;;;;;;28.89;22.48;99758.19;5053572;28;1102;-14
2023/02/26 03:10:44;;;;;;;;;;;;;;;28.69;23.04;99780.78;5045393;28;1223;-15
2023/02/26 03:13:16;;;;;;;;;;;;;;;28.99;22.86;99786.66;5055017;28;1011;-15
2023/02/26 03:16:06;;;;;;;;;;;;;;;28.44;23.29;99789.66;5071259;28;1464;-15
2023/02/26 03:18:41;;;;;;;;;;;;;;;28.84;22.86;99783.16;5033349;28;1902;-15
2023/02/26 03:21:16;;;;;;;;;;;;;;;28.56;23.03;99794.41;5025055;28;1082;-15
2023/02/26 03:23:51;;;;;;;;;;;;;;;28.54;22.85;99797.31;5045070;28;1281;-14
2023/02/26 03:26:36;;;;;;;;;;;;;;;29.02;22.84;99789.75;5054759;28;1148;-15
2023/02/26 03:29:19;;;;;;;;;;;;;;;28.69;22.33;99794.31;5024184;28;1342;-15
2023/02/26 03:31:54;;;;;;;;;;;;;;;28.81;22.58;99789.03;5032216;28;1219;-15
2023/02/26 03:34:20;;;;;;;;;;;;;;;28.92;22.39;99787.50;5038643;28;1151;-15
2023/02/26 03:37:03;;;;;;;;;;;;;;;28.49;23.21;99791.72;5067787;28;2044;-15
2023/02/26 03:39:35;;;;;;;;;;;;;;;28.34;23.08;99813.63;5034386;28;1143;-15
2023/02/26 03:42:03;;;;;;;;;;;;;;;28.53;22.91;99800.25;5051154;28;1173;-15
2023/02/26 03:44:46;;;;;;;;;;;;;;;28.56;22.67;99800.63;5046346;28;1537;-15
2023/02/26 03:47:12;;;;;;;;;;;;;;;28.51;22.67;99813.97;5054326;28;1118;-15
2023/02/26 03:49:43;;;;;;;;;;;;;;;28.66;22.97;99818.28;5031115;28;1191;-14
2023/02/26 03:52:09;;;;;;;;;;;;;;;28.68;22.65;99813.47;5026286;28;1633;-14
2023/02/26 03:55:02;;;;;;;;;;;;;;;28.58;22.54;99822.03;5046133;28;1095;-15
2023/02/26 03:57:51;;;;;;;;;;;;;;;28.32;23.00;99823.78;5049117;28;1918;-15
2023/02/26 04:00:34;;;;;;;;;;;;;;;28.70;22.39;99822.19;5043902;28;1175;-15
2023/02/26 04:03:18;;;;;;;;;;;;;;;28.43;23.02;99825.84;5027344;28;1488;-14
2023/02/26 04:05:47;;;;;;;;;;;;;;;28.19;23.06;99820.13;5045434;28;1103;-15
2023/02/26 04:08:13;;;;;;;;;;;;;;;28.19;23.20;99822.81;5027156;28;1392;-15
2023/02/26 04:10:46;;;;;;;;;;;;;;;28.35;22.94;99824.22;5057335;28;1111;-14
2023/02/26 04:13:12;;;;;;;;;;;;;;;28.75;22.38;99819.66;5027463;28;1187;-14
2023/02/26 04:15:37;;;;;;;;;;;;;;;28.28;22.74;99812.56;5048662;28;933;-15
2023/02/26 04:18:03;;;;;;;;;;;;;;;28.35;22.54;99823.41;5057978;28;1985;-15
2023/02/26 04:20:28;;;;;;;;;;;;;;;28.93;22.46;99820.81;5064648;28;1163;-15
2023/02/26 04:22:54;;;;;;;;;;;;;;;28.87;22.61;99825.22;5052937;28;1110;-15
2023/02/26 04:25:22;;;;;;;;;;;;;;;28.39;22.94;99819.22;5047609;28;1266;-14
2023/02/26 04:27:48;;;;;;;;;;;;;;;28.17;22.79;99832.16;5051479;28;1158;-15
2023/02/26 04:30:14;;;;;;;;;;;;;;;28.48;23.08;99833.31;5049677;28;1182;-15
2023/02/26 04:32:39;;;;;;;;;;;;;;;28.67;22.94;99838.88;5052330;28;1246;-15
2023/02/26 04:35:06;;;;;;;;;;;;;;;28.24;23.31;99832.97;5056565;28;1312;-14
2023/02/26 04:37:32;;;;;;;;;;;;;;;28.29;22.92;99830.47;5040751;28;1918;-15
2023/02/26 04:39:57;;;;;;;;;;;;;;;27.78;23.72;99840.16;5056599;28;1099;-14
2023/02/26 04:42:23;;;;;;;;;;;;;;;25.64;27.81;99842.47;5057708;28;1007;-15
2023/02/26 04:44:49;;;;;;;;;;;;;;;25.50;27.85;99849.59;5045828;28;1454;-14
2023/02/26 04:47:14;;;;;;;;;;;;;;;24.45;29.96;99850.72;5054220;28;1338;-15
2023/02/26 04:49:41;;;;;;;;;;;;;;;25.52;28.58;99852.09;5045054;28;1495;-15
2023/02/26 04:52:06;;;;;;;;;;;;;;;25.34;28.42;99847.16;5039587;28;1106;-13
2023/02/26 04:54:33;;;;;;;;;;;;;;;24.09;31.04;99852.25;5053162;28;1255;-13
2023/02/26 04:56:59;;;;;;;;;;;;;;;26.12;27.50;99853.56;5054493;28;1914;-14
2023/02/26 04:59:25;;;;;;;;;;;;;;;26.31;26.66;99854.69;5072009;28;1091;-14
2023/02/26 05:01:51;;;;;;;;;;;;;;;26.80;26.04;99865.53;5055326;28;2635;-14
2023/02/26 05:04:16;;;;;;;;;;;;;;;27.29;25.50;99865.47;5057367;28;1128;-14
2023/02/26 05:06:46;;;;;;;;;;;;;;;27.45;25.03;99876.91;5052466;28;1462;-14
2023/02/26 05:09:12;;;;;;;;;;;;;;;28.03;24.49;99878.16;5043272;28;2114;-15
2023/02/26 05:11:37;;;;;;;;;;;;;;;27.68;24.29;99883.75;5056153;28;1092;-15
2023/02/26 05:14:05;;;;;;;;;;;;;;;27.73;24.74;99895.66;5055409;28;1245;-14
2023/02/26 05:16:30;;;;;;;;;;;;;;;29.12;23.15;99904.88;5071754;28;1278;-15
2023/02/26 05:18:56;;;;;;;;;;;;;;;28.23;23.74;99907.88;5055243;28;1913;-15
2023/02/26 05:21:21;;;;;;;;;;;;;;;27.69;24.26;99917.91;5055574;28;1233;-15
2023/02/26 05:23:47;;;;;;;;;;;;;;;28.73;23.44;99919.19;5055488;28;1095;-15
2023/02/26 05:26:12;;;;;;;;;;;;;;;29.25;22.33;99917.50;5055042;28;1350;-15
2023/02/26 05:28:39;;;;;;;;;;;;;;;28.43;23.15;99912.41;5055562;28;1342;-15
2023/02/26 05:31:05;;;;;;;;;;;;;;;28.56;23.55;99910.72;5055212;28;2322;-15
2023/02/26 05:33:31;;;;;;;;;;;;;;;28.77;23.08;99920.44;5055302;28;1118;-14
2023/02/26 05:35:56;;;;;;;;;;;;;;;29.18;22.71;99926.50;5056685;28;1119;-16
2023/02/26 05:38:22;;;;;;;;;;;;;;;28.18;23.66;99936.56;5054314;28;1977;-15
2023/02/26 05:40:47;;;;;;;;;;;;;;;28.11;23.93;99937.41;5041654;28;1242;-15
2023/02/26 05:43:12;;;;;;;;;;;;;;;28.96;23.03;99926.78;5056668;28;1023;-16
2023/02/26 05:45:38;;;;;;;;;;;;;;;27.95;23.75;99940.53;5053922;28;1130;-15
2023/02/26 05:48:03;;;;;;;;;;;;;;;27.79;24.36;99945.34;5036294;28;1013;-15
2023/02/26 05:50:29;;;;;;;;;;;;;;;28.10;23.62;99934.91;5039208;28;1259;-15
2023/02/26 05:52:55;;;;;;;;;;;;;;;28.84;23.13;99936.66;5046727;28;1141;-15
2023/02/26 05:55:20;;;;;;;;;;;;;;;28.18;24.10;99939.28;5056146;28;1123;-15
2023/02/26 05:57:45;;;;;;;;;;;;;;;27.81;24.28;99932.44;5056207;28;1914;-14
2023/02/26 06:00:11;;;;;;;;;;;;;;;28.52;24.18;99939.25;5048675;28;1121;-15
2023/02/26 06:02:40;;;;;;;;;;;;;;;27.90;23.98;99932.22;5051927;28;1112;-15
2023/02/26 06:05:06;;;;;;;;;;;;;;;27.84;24.27;99934.72;5049753;28;1341;-15
2023/02/26 06:07:31;;;;;;;;;;;;;;;28.20;23.91;99937.19;5052418;28;1100;-15
2023/02/26 06:09:56;;;;;;;;;;;;;;;27.94;24.44;99936.19;5042576;28;1175;-15
2023/02/26 06:12:22;;;;;;;;;;;;;;;28.39;23.82;99943.66;5056189;28;1130;-15
2023/02/26 06:14:47;;;;;;;;;;;;;;;27.91;24.26;99942.00;5055411;28;1047;-15
2023/02/26 06:17:13;;;;;;;;;;;;;;;27.91;24.20;99945.53;5055498;28;1963;-15
2023/02/26 06:19:38;;;;;;;;;;;;;;;28.83;23.53;99953.91;5041824;28;1080;-15
2023/02/26 06:22:04;;;;;;;;;;;;;;;28.24;23.75;99951.97;5044986;28;1071;-15
2023/02/26 06:24:29;;;;;;;;;;;;;;;27.47;24.85;99955.88;5055473;28;1063;-15
2023/02/26 06:26:54;;;;;;;;;;;;;;;28.43;23.87;99957.56;5056053;28;1018;-14
2023/02/26 06:29:20;;;;;;;;;;;;;;;28.05;24.29;99962.59;5044106;28;1107;-15
2023/02/26 06:31:45;;;;;;;;;;;;;;;28.99;23.29;99959.94;5037816;28;1793;-15
2023/02/26 06:34:11;;;;;;;;;;;;;;;27.89;24.01;99953.03;5052819;28;1122;-15
2023/02/26 06:36:37;;;;;;;;;;;;;;;27.75;24.64;99953.03;5055712;28;1173;-15
2023/02/26 06:39:02;;;;;;;;;;;;;;;27.81;24.82;99953.25;5055759;28;1909;-15
2023/02/26 06:41:27;;;;;;;;;;;;;;;29.00;22.98;99967.00;5055886;28;1068;-15
2023/02/26 06:43:53;;;;;;;;;;;;;;;27.97;24.10;99977.16;5054680;28;1094;-14
2023/02/26 06:46:18;;;;;;;;;;;;;;;27.34;24.95;99972.88;5055657;28;1183;-15
2023/02/26 06:48:44;;;;;;;;;;;;;;;28.29;24.13;99968.41;5055635;28;1029;-15
2023/02/26 06:51:09;;;;;;;;;;;;;;;28.51;23.84;99978.97;5054689;28;1079;-15
2023/02/26 06:53:35;;;;;;;;;;;;;;;28.38;23.57;99979.84;5055417;28;1111;-15
2023/02/26 06:56:00;;;;;;;;;;;;;;;27.72;24.91;99991.28;5055591;28;1032;-15
2023/02/26 06:58:26;;;;;;;;;;;;;;;28.49;23.90;100002.72;5055726;28;1989;-14
2023/02/26 07:00:51;;;;;;;;;;;;;;;27.57;25.57;99991.44;5057848;28;2236;-15
2023/02/26 07:03:17;;;;;;;;;;;;;;;28.78;23.94;100005.97;5059057;28;1166;-15
2023/02/26 07:05:43;;;;;;;;;;;;;;;28.06;24.18;100001.28;5059326;28;988;-15
2023/02/26 07:08:08;;;;;;;;;;;;;;;27.99;24.85;99983.16;5059427;28;1094;-15
2023/02/26 07:10:33;;;;;;;;;;;;;;;28.04;24.18;99987.97;5059373;28;1075;-15
2023/02/26 07:12:59;;;;;;;;;;;;;;;28.97;23.08;99998.06;5059640;28;1158;-15
2023/02/26 07:15:24;;;;;;;;;;;;;;;27.99;24.01;99998.56;5058812;28;1159;-15
2023/02/26 07:17:50;;;;;;;;;;;;;;;28.02;24.30;100002.72;5058801;28;1918;-16
2023/02/26 07:20:16;;;;;;;;;;;;;;;29.03;23.18;100009.91;5055403;28;1189;-15
2023/02/26 07:22:42;;;;;;;;;;;;;;;28.95;22.93;100021.75;5059346;28;1094;-16
2023/02/26 07:25:08;;;;;;;;;;;;;;;27.82;24.43;100026.00;5058453;28;1098;-15
2023/02/26 07:27:33;;;;;;;;;;;;;;;28.04;24.42;100017.72;5058676;28;1190;-15
2023/02/26 07:29:59;;;;;;;;;;;;;;;28.97;23.17;100019.72;5059018;28;1140;-15
2023/02/26 07:32:24;;;;;;;;;;;;;;;28.55;23.26;100010.00;5058731;28;2503;-14
2023/02/26 07:34:50;;;;;;;;;;;;;;;27.92;24.33;100006.69;5058090;28;1398;-15
2023/02/26 07:37:15;;;;;;;;;;;;;;;28.46;23.59;100016.69;5058554;28;1905;-15
2023/02/26 07:39:41;;;;;;;;;;;;;;;28.97;23.09;100011.59;5052029;28;1127;-15
2023/02/26 07:42:06;;;;;;;;;;;;;;;28.31;23.77;100003.34;5051554;28;1139;-15
2023/02/26 07:44:32;;;;;;;;;;;;;;;27.47;24.61;99993.69;5058738;28;1284;-15
2023/02/26 07:46:58;;;;;;;;;;;;;;;28.33;23.85;100002.13;5045097;28;1114;-14
2023/02/26 07:49:24;;;;;;;;;;;;;;;28.31;23.75;100001.47;5058470;28;1111;-15
2023/02/26 07:51:49;;;;;;;;;;;;;;;27.77;24.37;99997.91;5058425;28;1063;-15
2023/02/26 07:54:15;;;;;;;;;;;;;;;28.33;24.12;99998.56;5058203;28;1135;-15
2023/02/26 07:56:41;;;;;;;;;;;;;;;28.72;23.07;99998.72;5058112;28;1019;-15
2023/02/26 07:59:07;;;;;;;;;;;;;;;28.38;23.32;100006.91;5058116;28;1980;-16
2023/02/26 08:01:33;;;;;;;;;;;;;;;27.59;24.42;99999.31;5051255;28;1852;-15
2023/02/26 08:03:58;;;;;;;;;;;;;;;28.43;24.02;100007.09;5049468;28;1418;-15
2023/02/26 08:06:24;;;;;;;;;;;;;;;28.19;23.73;100003.16;5040835;28;1376;-15
2023/02/26 08:08:49;;;;;;;;;;;;;;;27.30;24.71;99999.44;5041105;28;1471;-15
2023/02/26 08:11:14;;;;;;;;;;;;;;;27.35;25.29;99993.44;5045317;28;1479;-15
2023/02/26 08:13:40;;;;;;;;;;;;;;;29.01;22.91;100004.69;5040640;28;1456;-15
2023/02/26 08:16:05;;;;;;;;;;;;;;;28.09;23.75;100001.66;5039536;28;1325;-15
2023/02/26 08:18:31;;;;;;;;;;;;;;;27.58;24.38;99997.63;5042891;28;1992;-15
2023/02/26 08:20:56;;;;;;;;;;;;;;;27.86;24.80;100011.03;5040283;28;1285;-15
2023/02/26 08:23:22;;;;;;;;;;;;;;;29.23;22.67;100003.56;5043230;28;1309;-15
2023/02/26 08:25:49;;;;;;;;;;;;;;;28.03;23.88;99993.59;5043011;28;1312;-15
2023/02/26 08:28:14;;;;;;;;;;;;;;;27.39;24.80;99987.41;5045158;28;1290;-15
2023/02/26 08:30:40;;;;;;;;;;;;;;;28.55;23.55;99984.81;5056495;28;1805;-15
2023/02/26 08:33:05;;;;;;;;;;;;;;;28.53;23.53;99987.72;5042081;28;1313;-15
2023/02/26 08:35:30;;;;;;;;;;;;;;;27.68;24.43;99992.72;5041658;28;1293;-15
2023/02/26 08:37:56;;;;;;;;;;;;;;;27.47;24.66;99983.72;5040261;28;1898;-15
2023/02/26 08:40:21;;;;;;;;;;;;;;;28.65;23.61;99984.38;5052398;28;1130;-15
2023/02/26 08:42:47;;;;;;;;;;;;;;;28.16;24.02;99990.03;5057183;28;1227;-15
2023/02/26 08:45:12;;;;;;;;;;;;;;;27.37;24.95;99975.16;5057796;28;1131;-15
2023/02/26 08:47:40;;;;;;;;;;;;;;;27.46;25.60;99976.63;5057144;28;1043;-16
2023/02/26 08:50:06;;;;;;;;;;;;;;;28.93;23.19;99981.38;5058033;28;1099;-15
2023/02/26 08:52:31;;;;;;;;;;;;;;;27.47;24.85;99974.78;5052093;28;1023;-16
2023/02/26 08:54:57;;;;;;;;;;;;;;;26.67;25.35;99989.56;5046523;28;1117;-15
2023/02/26 08:57:22;;;;;;;;;;;;;;;24.64;28.14;99959.53;5056755;28;1898;-15
2023/02/26 08:59:47;;;;;;;;;;;;;;;25.28;27.48;99964.50;5057017;28;1000;-15
2023/02/26 09:02:13;;;;;;;;;;;;;;;26.10;26.65;99966.13;5056725;28;2481;-16
2023/02/26 09:04:38;;;;;;;;;;;;;;;27.04;25.23;99965.09;5056811;28;1155;-16
2023/02/26 09:07:04;;;;;;;;;;;;;;;26.92;25.16;99973.72;5057144;28;1201;-16
2023/02/26 09:09:29;;;;;;;;;;;;;;;27.19;25.11;99968.47;5057169;28;1163;-15
2023/02/26 09:11:55;;;;;;;;;;;;;;;27.47;24.82;99982.88;5057094;28;1186;-15
2023/02/26 09:14:20;;;;;;;;;;;;;;;27.48;24.45;99976.41;5056990;28;1032;-15
2023/02/26 09:16:46;;;;;;;;;;;;;;;27.27;24.73;99972.84;5056558;28;1210;-15
2023/02/26 09:19:12;;;;;;;;;;;;;;;27.19;25.21;99962.22;5072542;28;1909;-16
2023/02/26 09:21:37;;;;;;;;;;;;;;;27.01;25.33;99964.44;5043401;28;1091;-15
2023/02/26 09:24:03;;;;;;;;;;;;;;;26.74;25.71;99966.97;5056033;28;1446;-15
2023/02/26 09:26:28;;;;;;;;;;;;;;;26.93;25.41;99971.84;5056947;28;1051;-15
2023/02/26 09:28:54;;;;;;;;;;;;;;;27.17;25.19;99967.84;5056253;28;1103;-16
2023/02/26 09:31:19;;;;;;;;;;;;;;;27.09;25.06;99974.22;5056504;28;2301;-15
2023/02/26 09:33:44;;;;;;;;;;;;;;;27.17;25.11;99975.94;5056546;28;1063;-16
2023/02/26 09:36:10;;;;;;;;;;;;;;;26.73;25.92;99978.81;5056601;28;1150;-16
2023/02/26 09:38:35;;;;;;;;;;;;;;;26.43;26.15;99984.44;5056263;28;1933;-15
2023/02/26 09:41:02;;;;;;;;;;;;;;;26.83;25.55;99988.41;5052478;28;1424;-15
2023/02/26 09:43:30;;;;;;;;;;;;;;;27.22;25.06;99986.13;5055323;28;1187;-16
2023/02/26 09:45:57;;;;;;;;;;;;;;;27.04;25.46;99992.06;5056514;28;1043;-16
2023/02/26 09:48:23;;;;;;;;;;;;;;;27.13;25.13;99993.56;5055610;28;1080;-16
2023/02/26 09:50:52;;;;;;;;;;;;;;;27.24;24.91;99974.06;5056502;28;1095;-15
2023/02/26 09:53:21;;;;;;;;;;;;;;;27.46;24.72;99971.22;5045473;28;1083;-16
2023/02/26 09:55:49;;;;;;;;;;;;;;;26.99;25.49;99962.97;5042366;28;1159;-16
2023/02/26 09:58:17;;;;;;;;;;;;;;;26.93;25.72;99964.59;5055343;28;1981;-16
2023/02/26 10:00:43;;;;;;;;;;;;;;;26.60;26.03;99958.00;5056871;28;1150;-15
2023/02/26 10:03:08;;;;;;;;;;;;;;;26.88;25.64;99962.50;5056204;28;1159;-15
2023/02/26 10:05:38;;;;;;;;;;;;;;;27.07;25.49;99961.97;5056166;28;1174;-15
2023/02/26 10:08:04;;;;;;;;;;;;;;;27.00;25.38;99968.16;5056406;28;1205;-16
2023/02/26 10:10:45;;;;;;;;;;;;;;;26.79;25.79;99966.41;5054655;28;1104;-16
2023/02/26 10:13:22;;;;;;;;;;;;;;;26.86;25.44;99959.16;5056160;28;1055;-15
2023/02/26 10:15:48;;;;;;;;;;;;;;;27.05;25.28;99953.25;5056007;28;1103;-16
2023/02/26 10:18:16;;;;;;;;;;;;;;;27.17;25.53;99964.28;5038388;28;1918;-16
2023/02/26 10:20:41;;;;;;;;;;;;;;;26.67;26.08;99957.19;5047095;28;1096;-16
2023/02/26 10:23:16;;;;;;;;;;;;;;;26.72;25.61;99950.19;5056372;28;1106;-16
2023/02/26 10:26:04;;;;;;;;;;;;;;;27.10;25.21;99962.41;5055464;28;1123;-16
2023/02/26 10:28:33;;;;;;;;;;;;;;;27.12;25.40;99962.22;5044866;28;1347;-16
2023/02/26 10:31:04;;;;;;;;;;;;;;;26.87;25.92;99957.31;5036000;28;1219;-16
2023/02/26 10:33:49;;;;;;;;;;;;;;;26.69;26.19;99969.47;5037988;28;1120;-16
2023/02/26 10:36:24;;;;;;;;;;;;;;;26.97;26.01;99960.47;5059134;28;1114;-16
2023/02/26 10:38:51;;;;;;;;;;;;;;;27.10;25.42;99972.38;5059840;28;1918;-16
2023/02/26 10:41:18;;;;;;;;;;;;;;;26.72;25.92;99966.38;5057578;28;1315;-15
2023/02/26 10:43:48;;;;;;;;;;;;;;;26.64;26.12;99974.63;5043728;28;1199;-16
2023/02/26 10:46:13;;;;;;;;;;;;;;;26.98;25.61;99966.69;5055768;28;1128;-21
2023/02/26 10:48:58;;;;;;;;;;;;;;;26.76;25.67;99951.44;5059623;28;1195;-16
2023/02/26 10:51:27;;;;;;;;;;;;;;;26.52;26.37;99944.69;5059867;28;1136;-16
2023/02/26 10:54:03;;;;;;;;;;;;;;;26.59;26.00;99934.75;5044859;28;1321;-16
2023/02/26 10:56:32;;;;;;;;;;;;;;;26.94;25.75;99939.28;5057670;28;1235;-15
2023/02/26 10:58:58;;;;;;;;;;;;;;;26.85;25.87;99933.22;5041231;28;1913;-16
2023/02/26 11:01:24;;;;;;;;;;;;;;;26.74;25.88;99934.59;5056860;28;1192;-15
2023/02/26 11:03:54;;;;;;;;;;;;;;;26.68;25.92;99946.22;5059380;28;1183;-14
2023/02/26 11:06:21;;;;;;;;;;;;;;;27.04;25.46;99947.03;5055722;28;1267;-14
2023/02/26 11:08:49;;;;;;;;;;;;;;;26.91;25.55;99950.47;5058377;28;1235;-14
2023/02/26 11:11:33;;;;;;;;;;;;;;;26.88;25.56;99962.50;5058140;28;1286;-14
2023/02/26 11:13:58;;;;;;;;;;;;;;;26.94;25.78;99974.38;5059052;28;1034;-15
2023/02/26 11:16:24;;;;;;;;;;;;;;;27.06;25.84;99973.81;5059545;28;1127;-15
2023/02/26 11:18:52;;;;;;;;;;;;;;;27.18;25.48;99968.66;5057845;28;1913;-15
2023/02/26 11:21:21;;;;;;;;;;;;;;;27.50;25.60;99974.34;5058620;28;1115;-15
2023/02/26 11:23:46;;;;;;;;;;;;;;;27.34;25.18;99973.69;5059154;28;1079;-15
2023/02/26 11:26:16;;;;;;;;;;;;;;;27.36;25.83;99958.13;5058238;28;1080;-14
2023/02/26 11:28:48;;;;;;;;;;;;;;;27.37;25.29;99956.25;5059393;28;1050;-15
2023/02/26 11:31:17;;;;;;;;;;;;;;;27.16;26.09;99944.56;5052688;28;1024;-15
2023/02/26 11:33:43;;;;;;;;;;;;;;;27.55;25.60;99936.75;5044906;28;1128;-15
2023/02/26 11:36:11;;;;;;;;;;;;;;;27.26;25.45;99953.09;5059326;28;1171;-15
2023/02/26 11:38:36;;;;;;;;;;;;;;;27.26;25.44;99946.88;5059159;28;1902;-15
2023/02/26 11:41:02;;;;;;;;;;;;;;;27.07;25.54;99943.09;5058359;28;1143;-15
2023/02/26 11:43:32;;;;;;;;;;;;;;;26.97;26.12;99951.53;5057915;28;1012;-14
2023/02/26 11:45:59;;;;;;;;;;;;;;;27.65;25.09;99968.78;5058250;28;1076;-14
2023/02/26 11:48:26;;;;;;;;;;;;;;;27.21;25.33;99969.09;5058710;28;1082;-14
2023/02/26 11:50:59;;;;;;;;;;;;;;;27.17;25.36;99972.41;5058990;28;1143;-15
2023/02/26 11:53:24;;;;;;;;;;;;;;;27.10;25.44;99975.91;5052887;28;1148;-15
2023/02/26 11:55:57;;;;;;;;;;;;;;;27.30;25.63;99971.59;5054451;28;1198;-14
2023/02/26 11:58:23;;;;;;;;;;;;;;;27.26;25.36;99973.88;5058910;28;1898;-14
2023/02/26 12:00:52;;;;;;;;;;;;;;;27.35;25.20;99980.78;5053662;28;1095;-14
2023/02/26 12:03:21;;;;;;;;;;;;;;;27.26;25.44;99977.41;5049627;28;1207;-15
2023/02/26 12:05:47;;;;;;;;;;;;;;;27.20;25.22;99986.31;5058565;28;976;-21
2023/02/26 12:08:38;;;;;;;;;;;;;;;26.68;26.49;99980.44;5058257;28;1098;-15
2023/02/26 12:11:11;;;;;;;;;;;;;;;26.88;25.82;99983.25;5058113;28;1078;-15
2023/02/26 12:13:42;;;;;;;;;;;;;;;27.09;25.49;99990.44;5053863;28;1048;-16
2023/02/26 12:16:19;;;;;;;;;;;;;;;27.34;25.63;99992.59;5039198;28;2379;-15
2023/02/26 12:19:03;;;;;;;;;;;;;;;26.95;25.31;99997.63;5053492;28;1914;-15
2023/02/26 12:21:47;;;;;;;;;;;;;;;27.17;25.57;100000.25;5054215;28;1127;-15
2023/02/26 12:24:19;;;;;;;;;;;;;;;26.99;25.30;100003.44;5057213;28;1004;-15
2023/02/26 12:26:56;;;;;;;;;;;;;;;26.34;26.60;99988.34;5057891;28;1126;-15
2023/02/26 12:29:22;;;;;;;;;;;;;;;26.85;25.63;100000.69;5056391;28;1067;-16
2023/02/26 12:31:54;;;;;;;;;;;;;;;27.06;25.12;99992.72;5058371;28;1186;-16
2023/02/26 12:34:55;;;;;;;;;;;;;;;27.12;25.31;100003.53;5057410;28;1055;-16
2023/02/26 12:37:23;;;;;;;;;;;;;;;26.95;25.74;100008.41;4976486;28;1914;-16
2023/02/26 12:40:10;;;;;;;;;;;;;;;26.84;25.78;100004.41;5037795;28;1036;-15
2023/02/26 12:42:54;;;;;;;;;;;;;;;27.04;25.20;100010.97;5036531;28;889;-15
2023/02/26 12:45:25;;;;;;;;;;;;;;;26.87;25.66;100013.97;5036449;28;2231;-15
2023/02/26 12:47:53;;;;;;;;;;;;;;;26.84;25.62;100001.69;5057311;28;1174;-15
2023/02/26 12:50:22;;;;;;;;;;;;;;;26.97;25.68;100010.91;5057509;28;1179;-15
2023/02/26 12:52:52;;;;;;;;;;;;;;;27.04;25.67;100008.28;5057392;28;1094;-16
2023/02/26 12:55:17;;;;;;;;;;;;;;;26.96;25.59;100001.97;5055468;28;890;-15
2023/02/26 12:57:43;;;;;;;;;;;;;;;26.75;25.79;99992.94;5056171;28;1985;-15
2023/02/26 13:00:11;;;;;;;;;;;;;;;26.82;25.56;99993.00;5057069;28;1044;-15
2023/02/26 13:02:56;;;;;;;;;;;;;;;26.73;25.93;99992.31;5056625;28;1044;-15